createdAt,value
2018-10-11T00:01:46.272Z,14.87
2018-10-11T00:04:16.548Z,14.23
2018-10-11T00:06:46.772Z,14.07
2018-10-11T00:09:17.016Z,13.20
2018-10-11T00:11:47.265Z,12.80
2018-10-11T00:14:17.468Z,13.70
2018-10-11T00:16:47.650Z,15.00
2018-10-11T00:19:17.842Z,14.53
2018-10-11T00:21:48.106Z,14.67
2018-10-11T00:24:19.352Z,15.10
2018-10-11T00:26:49.564Z,14.33
2018-10-11T00:29:19.746Z,15.00
2018-10-11T00:31:50.003Z,14.53
2018-10-11T00:34:20.815Z,13.80
2018-10-11T00:36:51.021Z,14.60
2018-10-11T00:39:21.248Z,15.83
2018-10-11T00:41:51.497Z,15.40
2018-10-11T00:44:22.003Z,17.10
2018-10-11T00:46:52.182Z,15.63
2018-10-11T00:49:22.430Z,15.30
2018-10-11T00:51:52.629Z,14.33
2018-10-11T00:54:22.841Z,16.03
2018-10-11T00:56:53.558Z,15.60
2018-10-11T00:59:23.782Z,15.37
2018-10-11T01:01:53.966Z,13.30
2018-10-11T01:04:24.214Z,15.30
2018-10-11T01:06:54.430Z,14.60
2018-10-11T01:09:24.819Z,14.90
2018-10-11T01:11:54.930Z,16.47
2018-10-11T01:14:25.168Z,14.80
2018-10-11T01:16:55.324Z,15.03
2018-10-11T01:19:25.542Z,14.67
2018-10-11T01:21:55.775Z,14.37
2018-10-11T01:24:26.131Z,14.67
2018-10-11T01:26:56.377Z,13.37
2018-10-11T01:29:26.626Z,14.37
2018-10-11T01:31:56.873Z,15.33
2018-10-11T01:34:27.117Z,14.20
2018-10-11T01:36:57.311Z,13.83
2018-10-11T01:39:27.547Z,14.27
2018-10-11T01:41:57.781Z,14.53
2018-10-11T01:44:28.041Z,16.03
2018-10-11T01:46:58.265Z,13.40
2018-10-11T01:49:28.495Z,13.20
2018-10-11T01:51:58.709Z,14.67
2018-10-11T01:54:28.967Z,14.50
2018-10-11T01:56:59.191Z,14.43
2018-10-11T01:59:29.403Z,13.53
2018-10-11T02:01:59.571Z,15.07
2018-10-11T02:04:29.830Z,14.20
2018-10-11T02:07:00.029Z,13.50
2018-10-11T02:09:36.974Z,14.10
2018-10-11T02:12:07.289Z,14.23
2018-10-11T02:14:37.561Z,13.10
2018-10-11T02:17:07.765Z,12.93
2018-10-11T02:19:37.976Z,13.90
2018-10-11T02:22:08.197Z,13.70
2018-10-11T02:24:38.433Z,14.40
2018-10-11T02:27:08.623Z,13.30
2018-10-11T02:29:38.843Z,14.50
2018-10-11T02:32:09.160Z,13.73
2018-10-11T02:34:39.403Z,13.37
2018-10-11T02:37:09.887Z,13.07
2018-10-11T02:39:40.093Z,11.50
2018-10-11T02:42:10.537Z,13.03
2018-10-11T02:44:41.043Z,12.63
2018-10-11T02:47:11.697Z,13.13
2018-10-11T02:49:42.437Z,13.33
2018-10-11T02:52:12.937Z,12.40
2018-10-11T02:54:43.210Z,13.70
2018-10-11T02:57:30.397Z,13.50
2018-10-11T03:00:01.430Z,13.57
2018-10-11T03:02:31.728Z,11.97
2018-10-11T03:05:02.334Z,13.87
2018-10-11T03:07:32.610Z,11.80
2018-10-11T03:10:02.864Z,12.30
2018-10-11T03:12:33.062Z,12.43
2018-10-11T03:15:03.273Z,11.37
2018-10-11T03:17:33.468Z,12.13
2018-10-11T03:20:03.770Z,11.20
2018-10-11T03:22:33.930Z,12.70
2018-10-11T03:25:04.214Z,11.53
2018-10-11T03:27:34.334Z,12.70
2018-10-11T03:30:04.560Z,12.80
2018-10-11T03:32:34.708Z,12.20
2018-10-11T03:35:05.017Z,12.13
2018-10-11T03:37:35.224Z,10.63
2018-10-11T03:40:05.702Z,11.57
2018-10-11T03:42:35.884Z,10.87
2018-10-11T03:45:06.128Z,11.63
2018-10-11T03:47:36.321Z,12.10
2018-10-11T03:50:06.575Z,10.90
2018-10-11T03:52:43.508Z,12.40
2018-10-11T03:55:13.764Z,12.10
2018-10-11T03:57:43.940Z,11.97
2018-10-11T04:00:14.152Z,10.80
2018-10-11T04:02:44.370Z,12.17
2018-10-11T04:05:15.170Z,11.30
2018-10-11T04:07:45.385Z,9.83
2018-10-11T04:10:15.606Z,10.20
2018-10-11T04:12:45.853Z,10.50
2018-10-11T04:15:16.055Z,10.30
2018-10-11T04:17:46.255Z,10.00
2018-10-11T04:20:16.472Z,10.10
2018-10-11T04:22:46.644Z,9.60
2018-10-11T04:25:16.890Z,9.90
2018-10-11T04:27:47.993Z,11.07
2018-10-11T04:30:18.836Z,10.47
2018-10-11T04:32:49.648Z,10.00
2018-10-11T04:35:19.892Z,9.83
2018-10-11T04:37:50.353Z,10.23
2018-10-11T04:40:20.565Z,9.00
2018-10-11T04:42:50.906Z,10.40
2018-10-11T04:45:21.062Z,10.70
2018-10-11T04:47:52.370Z,8.97
2018-10-11T04:50:22.578Z,10.07
2018-10-11T04:52:52.854Z,10.93
2018-10-11T04:55:23.147Z,11.23
2018-10-11T04:57:53.354Z,10.80
2018-10-11T05:00:23.592Z,10.77
2018-10-11T05:02:53.934Z,9.43
2018-10-11T05:05:24.270Z,11.07
2018-10-11T05:07:54.451Z,10.27
2018-10-11T05:10:24.755Z,10.17
2018-10-11T05:12:55.337Z,10.30
2018-10-11T05:15:26.362Z,9.87
2018-10-11T05:17:56.912Z,11.90
2018-10-11T05:20:27.222Z,11.80
2018-10-11T05:22:57.447Z,11.50
2018-10-11T05:25:27.689Z,11.00
2018-10-11T05:27:57.883Z,12.67
2018-10-11T05:30:28.158Z,11.53
2018-10-11T05:32:58.954Z,11.97
2018-10-11T05:35:29.171Z,12.60
2018-10-11T05:37:59.462Z,11.10
2018-10-11T05:40:29.782Z,11.40
2018-10-11T05:43:01.110Z,11.47
2018-10-11T05:45:31.512Z,11.03
2018-10-11T05:48:01.752Z,11.13
2018-10-11T05:50:32.022Z,12.17
2018-10-11T05:53:02.592Z,11.57
2018-10-11T05:55:32.990Z,11.77
2018-10-11T05:58:03.288Z,10.73
2018-10-11T06:00:33.543Z,11.13
2018-10-11T06:03:04.617Z,11.70
2018-10-11T06:05:35.354Z,10.87
2018-10-11T06:08:05.830Z,12.10
2018-10-11T06:10:39.166Z,14.13
2018-10-11T06:13:10.412Z,12.80
2018-10-11T06:15:41.488Z,13.23
2018-10-11T06:18:12.914Z,12.60
2018-10-11T06:20:43.425Z,11.70
2018-10-11T06:23:14.116Z,17.63
2018-10-11T06:25:44.839Z,21.33
2018-10-11T06:28:16.788Z,9.83
2018-10-11T06:30:48.002Z,10.47
2018-10-11T06:33:19.093Z,10.03
2018-10-11T06:35:49.450Z,9.40
2018-10-11T06:38:19.734Z,9.13
2018-10-11T06:40:50.011Z,9.27
2018-10-11T06:43:20.587Z,8.67
2018-10-11T06:45:50.930Z,10.13
2018-10-11T06:48:21.207Z,8.43
2018-10-11T06:50:51.473Z,8.80
2018-10-11T06:53:21.951Z,8.00
2018-10-11T06:55:53.932Z,8.77
2018-10-11T06:58:24.245Z,8.80
2018-10-11T07:00:54.584Z,7.93
2018-10-11T07:03:24.822Z,7.87
2018-10-11T07:05:55.055Z,8.47
2018-10-11T07:08:25.352Z,9.03
2018-10-11T07:10:55.588Z,8.80
2018-10-11T07:13:26.037Z,8.73
2018-10-11T07:15:56.325Z,8.00
2018-10-11T07:18:26.595Z,8.10
2018-10-11T07:20:56.921Z,7.60
2018-10-11T07:23:27.131Z,7.80
2018-10-11T07:25:57.442Z,7.33
2018-10-11T07:28:27.611Z,7.47
2018-10-11T07:30:57.832Z,8.20
2018-10-11T07:33:28.113Z,9.10
2018-10-11T07:35:58.573Z,7.50
2018-10-11T07:38:28.815Z,7.30
2018-10-11T07:40:59.137Z,6.20
2018-10-11T07:43:29.319Z,14.37
2018-10-11T07:45:59.563Z,6.67
2018-10-11T07:48:29.883Z,7.40
2018-10-11T07:51:00.146Z,7.73
2018-10-11T07:53:30.527Z,6.37
2018-10-11T07:56:00.859Z,6.57
2018-10-11T07:58:31.113Z,6.73
2018-10-11T08:01:01.446Z,5.87
2018-10-11T08:03:31.764Z,6.00
2018-10-11T08:06:02.330Z,5.80
2018-10-11T08:08:32.641Z,5.70
2018-10-11T08:11:03.341Z,6.50
2018-10-11T08:13:33.843Z,5.70
2018-10-11T08:16:04.398Z,6.50
2018-10-11T08:18:34.755Z,5.80
2018-10-11T08:21:05.014Z,5.90
2018-10-11T08:23:35.388Z,5.90
2018-10-11T08:26:06.197Z,5.60
2018-10-11T08:28:36.074Z,9.20
2018-10-11T08:31:07.602Z,4.80
2018-10-11T08:33:37.926Z,9.40
2018-10-11T08:36:08.728Z,9.00
2018-10-11T08:38:39.697Z,8.00
2018-10-11T08:41:10.659Z,5.30
2018-10-11T08:43:41.065Z,5.50
2018-10-11T08:46:11.934Z,6.10
2018-10-11T08:48:42.504Z,5.83
2018-10-11T08:51:13.995Z,6.00
2018-10-11T08:53:44.411Z,5.17
2018-10-11T08:56:15.140Z,4.87
2018-10-11T08:58:46.448Z,4.90
2018-10-11T09:01:17.464Z,5.00
2018-10-11T09:03:48.235Z,4.83
2018-10-11T09:06:18.852Z,5.33
2018-10-11T09:08:49.492Z,5.47
2018-10-11T09:11:20.623Z,5.50
2018-10-11T09:13:50.986Z,5.73
2018-10-11T09:16:21.457Z,5.40
2018-10-11T09:18:51.844Z,5.93
2018-10-11T09:21:22.096Z,4.93
2018-10-11T09:23:52.407Z,5.07
2018-10-11T09:26:22.788Z,6.07
2018-10-11T09:28:53.198Z,5.70
2018-10-11T09:31:23.481Z,4.70
2018-10-11T09:33:53.738Z,11.33
2018-10-11T09:36:24.151Z,11.73
2018-10-11T09:38:54.298Z,5.67
2018-10-11T09:41:24.900Z,5.00
2018-10-11T09:43:55.136Z,4.70
2018-10-11T09:46:32.651Z,5.13
2018-10-11T09:49:03.398Z,5.47
2018-10-11T09:51:33.780Z,5.40
2018-10-11T09:54:04.153Z,4.40
2018-10-11T09:57:39.124Z,4.50
2018-10-11T10:01:13.942Z,3.27
2018-10-11T10:03:45.626Z,3.33
2018-10-11T10:06:16.502Z,4.00
2018-10-11T10:08:47.232Z,4.03
2018-10-11T10:11:18.439Z,3.40
2018-10-11T10:13:49.668Z,4.00
2018-10-11T10:16:22.860Z,3.00
2018-10-11T10:18:53.174Z,4.30
2018-10-11T10:21:23.443Z,4.33
2018-10-11T10:23:53.628Z,3.90
2018-10-11T10:26:23.845Z,4.03
2018-10-11T10:28:54.145Z,3.70
2018-10-11T10:31:24.326Z,4.47
2018-10-11T10:33:54.752Z,3.60
2018-10-11T10:36:24.962Z,3.93
2018-10-11T10:38:55.187Z,3.77
2018-10-11T10:41:25.828Z,3.00
2018-10-11T10:43:56.288Z,3.80
2018-10-11T10:46:26.676Z,3.87
2018-10-11T10:48:57.047Z,3.27
2018-10-11T10:51:27.345Z,4.30
2018-10-11T10:53:57.651Z,5.13
2018-10-11T10:56:27.910Z,4.27
2018-10-11T10:58:58.204Z,5.27
2018-10-11T11:01:28.487Z,4.27
2018-10-11T11:03:59.554Z,3.80
2018-10-11T11:06:29.880Z,3.73
2018-10-11T11:09:00.246Z,3.97
2018-10-11T11:11:30.512Z,4.37
2018-10-11T11:14:00.758Z,4.70
2018-10-11T11:16:31.084Z,11.73
2018-10-11T11:19:01.503Z,4.40
2018-10-11T11:21:31.633Z,3.90
2018-10-11T11:24:02.064Z,18.27
2018-10-11T11:26:32.753Z,6.23
2018-10-11T11:29:04.122Z,4.07
2018-10-11T11:31:34.379Z,16.70
2018-10-11T11:34:04.994Z,8.80
2018-10-11T11:36:35.662Z,6.30
2018-10-11T11:39:09.498Z,4.00
2018-10-11T11:41:40.483Z,3.40
2018-10-11T11:44:11.459Z,3.60
2018-10-11T11:46:42.051Z,3.87
2018-10-11T11:49:12.376Z,3.80
2018-10-11T11:51:42.785Z,4.60
2018-10-11T11:54:20.187Z,3.73
2018-10-11T11:56:51.247Z,3.27
2018-10-11T11:59:22.581Z,3.50
2018-10-11T12:01:52.802Z,3.97
2018-10-11T12:04:23.121Z,9.20
2018-10-11T12:06:53.575Z,5.57
2018-10-11T12:09:23.959Z,3.73
2018-10-11T12:11:54.317Z,2.93
2018-10-11T12:14:24.697Z,2.40
2018-10-11T12:16:54.969Z,2.90
2018-10-11T12:19:25.273Z,3.47
2018-10-11T12:21:55.483Z,2.70
2018-10-11T12:24:25.821Z,2.23
2018-10-11T12:26:56.180Z,3.00
2018-10-11T12:29:26.421Z,2.27
2018-10-11T12:31:56.681Z,3.13
2018-10-11T12:34:27.104Z,2.40
2018-10-11T12:36:57.325Z,2.23
2018-10-11T12:39:27.617Z,2.30
2018-10-11T12:41:57.912Z,2.53
2018-10-11T12:44:28.563Z,6.10
2018-10-11T12:46:58.864Z,3.07
2018-10-11T12:49:29.205Z,2.50
2018-10-11T12:51:59.455Z,9.90
2018-10-11T12:54:29.700Z,2.70
2018-10-11T12:57:00.042Z,2.57
2018-10-11T12:59:30.295Z,3.13
2018-10-11T13:02:00.517Z,2.40
2018-10-11T13:04:30.780Z,1.90
2018-10-11T13:07:00.919Z,2.17
2018-10-11T13:09:32.849Z,2.10
2018-10-11T13:12:03.442Z,1.90
2018-10-11T13:14:33.677Z,2.50
2018-10-11T13:17:03.904Z,2.17
2018-10-11T13:19:34.178Z,2.17
2018-10-11T13:22:04.531Z,2.30
2018-10-11T13:24:39.766Z,2.43
2018-10-11T13:27:05.155Z,2.40
2018-10-11T13:29:35.477Z,3.53
2018-10-11T13:32:05.841Z,2.77
2018-10-11T13:34:36.157Z,2.20
2018-10-11T13:37:06.459Z,2.50
2018-10-11T13:39:36.824Z,2.63
2018-10-11T13:42:07.055Z,6.50
2018-10-11T13:44:37.414Z,5.67
2018-10-11T13:47:07.818Z,5.90
2018-10-11T13:49:38.375Z,5.87
2018-10-11T13:52:13.191Z,5.33
2018-10-11T13:54:39.451Z,7.53
2018-10-11T13:57:09.809Z,7.80
2018-10-11T13:59:40.714Z,6.57
2018-10-11T14:02:11.404Z,7.50
2018-10-11T14:04:42.103Z,7.40
2018-10-11T14:07:12.561Z,6.80
2018-10-11T14:09:43.405Z,8.57
2018-10-11T14:12:13.857Z,6.90
2018-10-11T14:14:44.232Z,6.40
2018-10-11T14:17:14.727Z,7.10
2018-10-11T14:19:45.156Z,6.57
2018-10-11T14:22:15.868Z,7.20
2018-10-11T14:24:46.476Z,6.13
2018-10-11T14:27:17.300Z,7.20
2018-10-11T14:29:48.320Z,6.20
2018-10-11T14:32:19.353Z,6.53
2018-10-11T14:34:50.699Z,6.30
2018-10-11T14:37:22.728Z,7.27
2018-10-11T14:39:53.057Z,6.47
2018-10-11T14:42:23.359Z,6.50
2018-10-11T14:44:53.699Z,6.70
2018-10-11T14:47:24.271Z,7.20
2018-10-11T14:49:54.752Z,6.90
2018-10-11T14:52:25.010Z,5.77
2018-10-11T14:54:55.301Z,7.13
2018-10-11T14:57:25.837Z,7.20
2018-10-11T14:59:56.017Z,8.10
2018-10-11T15:02:26.231Z,7.43
2018-10-11T15:04:56.501Z,6.70
2018-10-11T15:07:26.804Z,7.20
2018-10-11T15:09:57.005Z,5.83
2018-10-11T15:12:27.233Z,7.30
2018-10-11T15:14:57.489Z,6.63
2018-10-11T15:17:27.845Z,6.40
2018-10-11T15:19:58.091Z,6.30
2018-10-11T15:22:34.815Z,6.10
2018-10-11T15:25:05.885Z,6.60
2018-10-11T15:27:36.201Z,6.20
2018-10-11T15:30:07.436Z,6.47
2018-10-11T15:32:37.831Z,6.83
2018-10-11T15:35:08.456Z,6.40
2018-10-11T15:37:38.902Z,7.70
2018-10-11T15:40:09.588Z,7.00
2018-10-11T15:42:39.993Z,7.50
2018-10-11T15:45:10.574Z,6.20
2018-10-11T15:47:40.849Z,6.53
2018-10-11T15:50:11.580Z,6.30
2018-10-11T15:52:42.057Z,6.40
2018-10-11T15:55:12.611Z,6.83
2018-10-11T15:57:43.194Z,6.40
2018-10-11T16:00:13.710Z,7.53
2018-10-11T16:02:44.148Z,7.50
2018-10-11T16:05:14.777Z,7.40
2018-10-11T16:07:45.247Z,7.13
2018-10-11T16:10:15.657Z,7.60
2018-10-11T16:12:45.887Z,7.33
2018-10-11T16:15:16.204Z,7.83
2018-10-11T16:17:46.449Z,7.10
2018-10-11T16:20:16.628Z,7.57
2018-10-11T16:22:46.870Z,6.30
2018-10-11T16:25:17.685Z,7.47
2018-10-11T16:27:48.059Z,7.80
2018-10-11T16:30:18.204Z,7.27
2018-10-11T16:32:48.434Z,7.77
2018-10-11T16:35:18.727Z,7.60
2018-10-11T16:37:48.919Z,8.57
2018-10-11T16:40:19.209Z,8.03
2018-10-11T16:42:49.548Z,8.00
2018-10-11T16:45:19.869Z,7.93
2018-10-11T16:47:50.122Z,8.30
2018-10-11T16:50:20.482Z,7.67
2018-10-11T16:52:50.753Z,7.90
2018-10-11T16:55:21.031Z,9.27
2018-10-11T16:57:51.243Z,8.77
2018-10-11T17:00:21.506Z,9.20
2018-10-11T17:02:51.757Z,8.60
2018-10-11T17:05:22.043Z,8.93
2018-10-11T17:07:52.292Z,8.67
2018-10-11T17:10:22.548Z,8.23
2018-10-11T17:12:52.740Z,8.57
2018-10-11T17:15:23.010Z,8.90
2018-10-11T17:17:53.216Z,9.00
2018-10-11T17:20:23.438Z,9.30
2018-10-11T17:22:53.683Z,9.30
2018-10-11T17:25:23.900Z,10.10
2018-10-11T17:27:54.138Z,9.50
2018-10-11T17:30:25.416Z,10.80
2018-10-11T17:32:56.239Z,9.73
2018-10-11T17:35:26.776Z,9.27
2018-10-11T17:37:56.955Z,9.90
2018-10-11T17:40:30.097Z,9.70
2018-10-11T17:43:00.313Z,10.00
2018-10-11T17:45:30.597Z,9.93
2018-10-11T17:48:00.800Z,9.63
2018-10-11T17:50:31.094Z,10.10
2018-10-11T17:53:01.703Z,10.33
2018-10-11T17:55:35.135Z,9.90
2018-10-11T17:58:05.380Z,10.07
2018-10-11T18:00:35.628Z,10.27
2018-10-11T18:03:05.943Z,11.07
2018-10-11T18:05:36.156Z,10.57
2018-10-11T18:08:06.374Z,11.60
2018-10-11T18:10:37.790Z,11.40
2018-10-11T18:13:08.101Z,11.57
2018-10-11T18:15:39.441Z,12.33
2018-10-11T18:18:10.264Z,13.20
2018-10-11T18:20:40.554Z,12.00
2018-10-11T18:23:10.829Z,12.73
2018-10-11T18:25:41.029Z,12.87
2018-10-11T18:28:11.271Z,13.53
2018-10-11T18:30:41.485Z,12.30
2018-10-11T18:33:11.702Z,12.73
2018-10-11T18:35:42.075Z,13.50
2018-10-11T18:38:12.390Z,14.30
2018-10-11T18:40:42.676Z,13.77
2018-10-11T18:43:12.907Z,14.70
2018-10-11T18:45:43.152Z,14.77
2018-10-11T18:48:13.563Z,14.07
2018-10-11T18:50:43.821Z,15.00
2018-10-11T18:53:14.037Z,14.90
2018-10-11T18:55:44.365Z,14.90
2018-10-11T18:58:14.597Z,12.73
2018-10-11T19:00:45.027Z,12.90
2018-10-11T19:03:15.444Z,13.10
2018-10-11T19:05:45.964Z,13.13
2018-10-11T19:08:16.165Z,12.70
2018-10-11T19:10:46.423Z,12.13
2018-10-11T19:13:16.816Z,12.93
2018-10-11T19:15:47.063Z,11.87
2018-10-11T19:18:17.291Z,13.17
2018-10-11T19:20:47.576Z,12.83
2018-10-11T19:23:17.721Z,13.43
2018-10-11T19:25:49.222Z,12.47
2018-10-11T19:28:19.802Z,12.30
2018-10-11T19:30:50.106Z,11.70
2018-10-11T19:33:20.301Z,12.93
2018-10-11T19:35:51.010Z,12.37
2018-10-11T19:38:21.212Z,13.40
2018-10-11T19:40:51.486Z,13.83
2018-10-11T19:43:21.729Z,13.07
2018-10-11T19:45:52.238Z,12.83
2018-10-11T19:48:22.648Z,14.30
2018-10-11T19:50:52.820Z,14.33
2018-10-11T19:53:23.052Z,15.87
2018-10-11T19:55:53.285Z,14.80
2018-10-11T19:58:23.637Z,17.50
2018-10-11T20:00:53.904Z,19.03
2018-10-11T20:03:24.077Z,17.23
2018-10-11T20:05:54.318Z,17.33
2018-10-11T20:08:24.532Z,16.00
2018-10-11T20:10:54.763Z,15.80
2018-10-11T20:13:24.976Z,15.30
2018-10-11T20:15:55.287Z,14.00
2018-10-11T20:18:25.508Z,15.70
2018-10-11T20:20:55.793Z,15.47
2018-10-11T20:23:26.033Z,16.07
2018-10-11T20:25:56.352Z,15.20
2018-10-11T20:28:26.511Z,14.00
2018-10-11T20:30:56.769Z,14.50
2018-10-11T20:33:27.025Z,15.30
2018-10-11T20:35:57.288Z,15.87
2018-10-11T20:38:28.414Z,14.90
2018-10-11T20:40:58.659Z,14.87
2018-10-11T20:43:28.885Z,15.43
2018-10-11T20:45:59.098Z,15.33
2018-10-11T20:48:29.407Z,15.00
2018-10-11T20:50:59.723Z,16.10
2018-10-11T20:53:29.892Z,15.27
2018-10-11T20:56:00.172Z,15.50
2018-10-11T20:58:30.458Z,15.87
2018-10-11T21:01:00.708Z,15.20
2018-10-11T21:03:30.952Z,14.23
2018-10-11T21:06:01.245Z,16.00
2018-10-11T21:08:31.466Z,15.50
2018-10-11T21:11:01.950Z,15.17
2018-10-11T21:13:32.147Z,15.57
2018-10-11T21:16:02.401Z,15.27
2018-10-11T21:18:32.572Z,15.70
2018-10-11T21:21:02.871Z,16.20
2018-10-11T21:23:33.038Z,13.93
2018-10-11T21:26:03.317Z,15.83
2018-10-11T21:28:33.500Z,14.27
2018-10-11T21:31:03.744Z,14.77
2018-10-11T21:33:34.526Z,14.90
2018-10-11T21:36:04.810Z,14.70
2018-10-11T21:38:35.286Z,15.10
2018-10-11T21:41:05.597Z,14.67
2018-10-11T21:43:35.896Z,15.13
2018-10-11T21:46:06.189Z,13.23
2018-10-11T21:48:36.342Z,15.23
2018-10-11T21:51:06.910Z,14.07
2018-10-11T21:53:37.118Z,14.20
2018-10-11T21:56:07.379Z,14.77
2018-10-11T21:58:37.609Z,15.00
2018-10-11T22:01:12.980Z,15.03
2018-10-11T22:03:43.227Z,15.37
2018-10-11T22:06:13.493Z,14.60
2018-10-11T22:08:44.065Z,14.13
2018-10-11T22:11:14.586Z,13.33
2018-10-11T22:13:44.830Z,13.80
2018-10-11T22:16:15.066Z,15.80
2018-10-11T22:18:45.302Z,14.00
2018-10-11T22:21:15.569Z,14.40
2018-10-11T22:23:45.789Z,14.23
2018-10-11T22:26:16.030Z,14.93
2018-10-11T22:28:46.219Z,13.10
2018-10-11T22:31:16.450Z,14.20
2018-10-11T22:33:46.663Z,13.80
2018-10-11T22:36:16.903Z,13.60
2018-10-11T22:38:47.081Z,14.20
2018-10-11T22:41:17.378Z,14.23
2018-10-11T22:43:47.655Z,14.90
2018-10-11T22:46:17.973Z,15.23
2018-10-11T22:48:48.196Z,13.03
2018-10-11T22:51:18.492Z,14.97
2018-10-11T22:53:48.840Z,13.90
2018-10-11T22:56:21.674Z,13.50
2018-10-11T22:58:53.014Z,13.57
2018-10-11T23:01:23.410Z,14.07
2018-10-11T23:03:53.616Z,14.20
2018-10-11T23:06:23.910Z,15.27
2018-10-11T23:08:54.108Z,13.00
2018-10-11T23:11:24.880Z,13.10
2018-10-11T23:13:55.084Z,12.87
2018-10-11T23:16:25.316Z,12.80
2018-10-11T23:18:55.494Z,12.30
2018-10-11T23:21:27.251Z,12.90
2018-10-11T23:23:57.518Z,13.20
2018-10-11T23:26:27.746Z,13.10
2018-10-11T23:28:57.950Z,14.00
2018-10-11T23:31:28.138Z,14.17
2018-10-11T23:33:58.316Z,12.07
2018-10-11T23:36:28.528Z,12.60
2018-10-11T23:38:58.778Z,12.30
2018-10-11T23:41:29.047Z,12.40
2018-10-11T23:43:59.210Z,12.33
2018-10-11T23:46:29.468Z,12.30
2018-10-11T23:48:59.676Z,12.87
2018-10-11T23:51:29.898Z,11.53
2018-10-11T23:54:00.090Z,11.90
2018-10-11T23:56:30.316Z,11.77
2018-10-11T23:59:00.496Z,12.03
